Time;durP1;ratioP1;P1;durP2;ratioP2;P2;SDS_P1;SDS_P2;PMS_P1;PMS_P2;Temp;Humidity;BMP_temperature;BMP_pressure;BME280_temperature;BME280_humidity;BME280_pressure;Samples;Min_cycle;Max_cycle;Signal;HPM_P1;HPM_P2
2022/08/19 00:01:36;;;;;;;3.08;0.50;;;18.80;99.90;;;;;;5050968;28;20244;-54
2022/08/19 00:04:05;;;;;;;0.57;0.40;;;18.70;99.90;;;;;;5050906;28;20173;-54
2022/08/19 00:06:31;;;;;;;2.20;0.60;;;18.80;99.90;;;;;;5050861;28;20268;-54
2022/08/19 00:08:59;;;;;;;2.55;0.70;;;18.60;99.90;;;;;;5050853;28;20212;-54
2022/08/19 00:11:27;;;;;;;4.10;0.80;;;18.60;99.90;;;;;;5049477;28;20544;-54
2022/08/19 00:13:54;;;;;;;5.00;0.85;;;18.50;99.90;;;;;;5050749;28;20773;-54
2022/08/19 00:16:21;;;;;;;9.05;1.15;;;18.50;99.90;;;;;;5049411;28;20540;-54
2022/08/19 00:18:48;;;;;;;10.48;1.30;;;18.50;99.90;;;;;;5050813;28;20174;-54
2022/08/19 00:21:14;;;;;;;8.07;1.60;;;18.50;99.90;;;;;;5050949;28;20196;-54
2022/08/19 00:23:40;;;;;;;9.52;1.60;;;18.50;99.90;;;;;;5050916;28;20173;-54
2022/08/19 00:26:07;;;;;;;9.93;1.40;;;18.50;99.90;;;;;;5050706;28;20636;-51
2022/08/19 00:28:35;;;;;;;8.45;1.40;;;18.50;99.90;;;;;;5050681;28;20671;-52
2022/08/19 00:31:05;;;;;;;10.20;1.70;;;18.40;99.90;;;;;;5050664;28;20220;-53
2022/08/19 00:33:32;;;;;;;13.95;1.63;;;18.40;99.90;;;;;;5050477;28;20204;-52
2022/08/19 00:35:58;;;;;;;8.63;1.60;;;18.40;99.90;;;;;;5050603;28;20707;-52
2022/08/19 00:38:24;;;;;;;11.30;1.70;;;18.40;99.90;;;;;;5049341;28;20173;-53
2022/08/19 00:40:50;;;;;;;9.27;1.65;;;18.40;99.90;;;;;;5050656;28;20177;-53
2022/08/19 00:43:21;;;;;;;9.98;1.30;;;18.40;99.90;;;;;;5050405;28;20230;-52
2022/08/19 00:45:47;;;;;;;6.72;1.35;;;18.40;99.90;;;;;;5050490;28;20632;-52
2022/08/19 00:48:14;;;;;;;5.72;1.33;;;18.40;99.90;;;;;;5050486;28;20166;-52
2022/08/19 00:50:42;;;;;;;15.27;2.13;;;18.40;99.90;;;;;;5050499;28;20177;-52
2022/08/19 00:53:14;;;;;;;12.63;1.30;;;18.50;99.90;;;;;;5050447;28;20244;-53
2022/08/19 00:55:42;;;;;;;14.93;1.50;;;18.50;99.90;;;;;;5050391;28;20177;-52
2022/08/19 00:58:15;;;;;;;12.40;1.80;;;18.50;99.90;;;;;;5050400;28;20177;-52
2022/08/19 01:00:41;;;;;;;9.30;1.30;;;18.50;99.90;;;;;;5051915;28;20319;-52
2022/08/19 01:03:10;;;;;;;9.23;1.23;;;18.50;99.90;;;;;;5054071;28;20260;-53
2022/08/19 01:05:39;;;;;;;10.45;1.50;;;18.50;99.90;;;;;;5053999;28;20173;-53
2022/08/19 01:08:06;;;;;;;10.95;1.20;;;18.50;99.90;;;;;;5053956;28;20176;-53
2022/08/19 01:10:46;;;;;;;3.50;0.90;;;18.40;99.90;;;;;;5053895;28;20183;-54
2022/08/19 01:13:14;;;;;;;4.78;1.08;;;18.20;99.90;;;;;;5053775;28;20256;-53
2022/08/19 01:15:44;;;;;;;4.97;0.90;;;18.20;99.90;;;;;;5054026;28;20165;-53
2022/08/19 01:18:13;;;;;;;6.93;1.23;;;18.10;99.90;;;;;;5053901;28;20567;-53
2022/08/19 01:20:41;;;;;;;6.93;1.30;;;18.10;99.90;;;;;;5053755;28;20257;-53
2022/08/19 01:23:07;;;;;;;5.68;1.23;;;18.10;99.90;;;;;;5053610;28;20174;-53
2022/08/19 01:25:51;;;;;;;6.18;1.20;;;18.10;99.90;;;;;;5053694;28;20865;-52
2022/08/19 01:28:23;;;;;;;5.30;1.20;;;18.00;99.90;;;;;;5053683;28;20219;-52
2022/08/19 01:30:49;;;;;;;4.25;1.23;;;18.00;99.90;;;;;;5053728;28;20196;-52
2022/08/19 01:33:15;;;;;;;10.48;1.17;;;18.10;99.90;;;;;;5053487;28;20699;-52
2022/08/19 01:35:41;;;;;;;8.35;1.35;;;18.10;99.90;;;;;;5053532;28;20650;-53
2022/08/19 01:38:19;;;;;;;5.57;1.40;;;18.00;99.90;;;;;;5053455;28;20260;-53
2022/08/19 01:40:45;;;;;;;8.85;1.45;;;17.90;99.90;;;;;;5053387;28;20176;-53
2022/08/19 01:43:11;;;;;;;6.05;1.60;;;17.80;99.90;;;;;;5053241;28;20221;-53
2022/08/19 01:45:40;;;;;;;6.95;1.58;;;17.80;99.90;;;;;;5053317;28;20200;-53
2022/08/19 01:48:06;;;;;;;8.23;1.50;;;17.80;99.90;;;;;;5053347;28;20184;-53
2022/08/19 01:50:33;;;;;;;12.15;1.90;;;17.70;99.90;;;;;;5053186;28;20173;-53
2022/08/19 01:53:00;;;;;;;10.93;2.10;;;17.70;99.90;;;;;;5051848;28;20219;-53
2022/08/19 01:55:25;;;;;;;6.60;1.77;;;17.70;99.90;;;;;;5053301;28;20189;-53
2022/08/19 01:57:59;;;;;;;8.77;1.67;;;17.70;99.90;;;;;;5053113;28;20702;-53
2022/08/19 02:00:27;;;;;;;8.00;1.80;;;17.70;99.90;;;;;;5053061;28;20169;-53
2022/08/19 02:02:53;;;;;;;8.43;2.10;;;17.80;99.90;;;;;;5053387;28;20197;-53
2022/08/19 02:05:21;;;;;;;7.35;1.90;;;17.70;99.90;;;;;;5052883;28;20275;-52
2022/08/19 02:07:47;;;;;;;11.23;2.75;;;17.70;99.90;;;;;;5052834;28;20707;-52
2022/08/19 02:10:17;;;;;;;10.48;2.42;;;17.60;99.90;;;;;;5052850;28;20239;-53
2022/08/19 02:12:43;;;;;;;10.30;2.67;;;17.60;99.90;;;;;;5051924;28;20240;-53
2022/08/19 02:15:09;;;;;;;10.32;2.75;;;17.70;99.90;;;;;;5052709;28;20177;-53
2022/08/19 02:17:35;;;;;;;14.50;3.17;;;17.70;99.90;;;;;;5052642;28;20173;-52
2022/08/19 02:20:01;;;;;;;11.65;2.85;;;17.60;99.90;;;;;;5052756;28;20176;-53
2022/08/19 02:22:27;;;;;;;17.10;3.13;;;17.50;99.90;;;;;;5052778;28;20647;-52
2022/08/19 02:24:53;;;;;;;8.00;2.80;;;17.60;99.90;;;;;;5052798;28;20191;-52
2022/08/19 02:27:20;;;;;;;11.68;3.15;;;17.70;99.90;;;;;;5052486;28;20184;-52
2022/08/19 02:29:48;;;;;;;9.95;3.45;;;17.80;99.90;;;;;;5052423;28;20169;-52
2022/08/19 02:32:14;;;;;;;11.07;2.97;;;17.90;99.90;;;;;;5052257;28;20193;-52
2022/08/19 02:34:42;;;;;;;14.88;2.72;;;17.80;99.90;;;;;;5052448;28;20177;-52
2022/08/19 02:38:24;;;;;;;9.55;2.88;;;17.80;99.90;;;;;;5052306;28;20632;-53
2022/08/19 02:39:53;;;;;;;13.13;2.90;;;17.80;99.90;;;;;;5052060;28;20179;-53
2022/08/19 02:42:18;;;;;;;10.63;3.00;;;17.80;99.90;;;;;;5052098;28;20299;-52
2022/08/19 02:44:44;;;;;;;8.85;2.42;;;;;;;;;;5052125;28;20208;-53
2022/08/19 02:47:10;;;;;;;8.00;2.88;;;17.80;99.90;;;;;;5052034;28;20165;-52
2022/08/19 02:49:36;;;;;;;10.38;2.85;;;;;;;;;;5052045;28;20226;-52
2022/08/19 02:52:03;;;;;;;16.95;2.85;;;;;;;;;;5051842;28;20216;-52
2022/08/19 02:54:29;;;;;;;22.40;3.47;;;;;;;;;;5051955;28;20244;-52
2022/08/19 02:56:55;;;;;;;15.00;3.15;;;;;;;;;;5051860;28;20259;-53
2022/08/19 02:59:21;;;;;;;13.35;2.47;;;;;;;;;;5051785;28;20173;-52
2022/08/19 03:01:47;;;;;;;18.33;2.90;;;17.60;99.90;;;;;;5051871;28;20170;-52
2022/08/19 03:04:14;;;;;;;14.50;2.65;;;;;;;;;;5051858;28;20631;-52
2022/08/19 03:06:42;;;;;;;19.88;3.42;;;17.50;99.90;;;;;;5051754;28;20177;-53
2022/08/19 03:09:08;;;;;;;13.43;2.92;;;17.50;99.90;;;;;;5051741;28;20245;-53
2022/08/19 03:11:34;;;;;;;17.45;3.08;;;17.50;99.90;;;;;;5051646;28;20185;-53
2022/08/19 03:14:01;;;;;;;18.88;3.13;;;17.50;99.90;;;;;;5050242;28;20187;-53
2022/08/19 03:16:29;;;;;;;11.40;2.95;;;17.50;99.90;;;;;;5051581;28;20627;-52
2022/08/19 03:18:58;;;;;;;20.05;2.83;;;;;;;;;;5051454;28;20176;-53
2022/08/19 03:21:25;;;;;;;14.60;2.75;;;;;;;;;;5051478;28;20235;-53
2022/08/19 03:23:55;;;;;;;19.77;3.05;;;;;;;;;;5051445;28;20173;-53
2022/08/19 03:26:21;;;;;;;18.33;2.88;;;;;;;;;;5051270;28;20281;-52
2022/08/19 03:28:49;;;;;;;10.23;2.22;;;17.50;99.90;;;;;;5051568;28;20173;-53
2022/08/19 03:31:17;;;;;;;12.18;2.47;;;17.50;99.90;;;;;;5051205;28;20169;-52
2022/08/19 03:33:43;;;;;;;14.98;3.42;;;17.50;99.90;;;;;;5051228;28;20209;-52
2022/08/19 03:36:15;;;;;;;11.75;2.90;;;17.50;99.90;;;;;;5051223;28;20165;-53
2022/08/19 03:38:45;;;;;;;18.90;3.45;;;17.50;99.90;;;;;;5051733;28;20238;-53
2022/08/19 03:41:15;;;;;;;21.05;3.20;;;17.40;99.90;;;;;;5051207;28;20170;-52
2022/08/19 03:43:41;;;;;;;16.15;2.60;;;17.30;99.90;;;;;;5051104;28;20225;-54
2022/08/19 03:46:10;;;;;;;13.95;3.00;;;17.40;99.90;;;;;;5051209;28;20172;-52
2022/08/19 03:48:38;;;;;;;16.35;3.17;;;17.30;99.90;;;;;;5051086;28;20181;-52
2022/08/19 03:51:04;;;;;;;15.80;3.25;;;;;;;;;;5051049;28;20181;-52
2022/08/19 03:53:31;;;;;;;21.20;3.05;;;;;;;;;;5050794;28;20577;-52
2022/08/19 03:56:01;;;;;;;20.35;3.88;;;;;;;;;;5051199;28;20175;-52
2022/08/19 03:58:31;;;;;;;27.27;3.90;;;;;;;;;;5050993;28;20199;-52
2022/08/19 04:00:57;;;;;;;23.83;3.90;;;;;;;;;;5051265;28;20173;-53
2022/08/19 04:03:24;;;;;;;19.15;3.97;;;;;;;;;;5050816;28;20177;-52
2022/08/19 04:05:50;;;;;;;20.65;4.35;;;;;;;;;;5050681;28;20187;-53
2022/08/19 04:08:19;;;;;;;27.25;4.30;;;;;;;;;;5050666;28;20181;-53
2022/08/19 04:10:46;;;;;;;15.70;4.20;;;;;;;;;;5050661;28;20177;-52
2022/08/19 04:13:12;;;;;;;28.77;5.15;;;;;;;;;;5049244;28;20679;-52
2022/08/19 04:15:42;;;;;;;19.45;4.03;;;;;;;;;;5050804;28;20221;-53
2022/08/19 04:18:11;;;;;;;26.20;4.10;;;;;;;;;;5050697;28;20180;-52
2022/08/19 04:20:45;;;;;;;27.42;4.20;;;;;;;;;;5050517;28;20165;-53
2022/08/19 04:23:12;;;;;;;23.60;4.45;;;17.50;99.90;;;;;;5050583;28;20343;-52
2022/08/19 04:25:40;;;;;;;21.90;4.10;;;17.50;99.90;;;;;;5050634;28;20256;-52
2022/08/19 04:28:08;;;;;;;28.38;4.90;;;17.40;99.90;;;;;;5050588;28;20169;-52
2022/08/19 04:30:42;;;;;;;30.15;4.85;;;17.30;99.90;;;;;;5050563;28;20647;-53
2022/08/19 04:33:08;;;;;;;26.52;5.20;;;17.30;99.90;;;;;;5050339;28;20225;-52
2022/08/19 04:35:37;;;;;;;28.13;4.85;;;17.20;99.90;;;;;;5052002;28;20180;-52
2022/08/19 04:38:03;;;;;;;27.77;5.07;;;17.10;99.90;;;;;;5054462;28;20264;-52
2022/08/19 04:43:14;;;;;;;27.85;5.28;;;16.80;99.90;;;;;;5054415;28;20224;-52
2022/08/19 04:45:40;;;;;;;34.75;5.38;;;16.80;99.90;;;;;;5054307;28;20244;-52
2022/08/19 04:48:05;;;;;;;25.73;4.97;;;16.80;99.90;;;;;;5054459;28;20258;-51
2022/08/19 04:50:31;;;;;;;34.70;5.75;;;16.70;99.90;;;;;;5054305;28;20663;-53
2022/08/19 04:52:57;;;;;;;23.27;5.38;;;;;;;;;;5053196;28;20201;-52
2022/08/19 04:55:25;;;;;;;28.38;5.68;;;16.70;99.90;;;;;;5054176;28;20176;-52
2022/08/19 04:57:51;;;;;;;22.75;5.75;;;;;;;;;;5054225;28;20189;-52
2022/08/19 05:00:17;;;;;;;22.05;4.95;;;16.70;99.90;;;;;;5054175;28;20184;-52
2022/08/19 05:02:42;;;;;;;23.98;6.45;;;16.70;99.90;;;;;;5054286;28;20169;-52
2022/08/19 05:05:09;;;;;;;19.20;5.10;;;16.70;99.90;;;;;;5054354;28;20649;-52
2022/08/19 05:07:35;;;;;;;24.42;5.28;;;16.70;99.90;;;;;;5054190;28;20169;-52
2022/08/19 05:10:01;;;;;;;25.58;5.65;;;16.60;99.90;;;;;;5053975;28;20268;-52
2022/08/19 05:12:28;;;;;;;23.55;4.97;;;;;;;;;;5053872;28;20217;-51
2022/08/19 05:14:56;;;;;;;21.08;5.60;;;;;;;;;;5053874;28;20208;-52
2022/08/19 05:17:22;;;;;;;31.02;7.15;;;;;;;;;;5053949;28;20180;-52
2022/08/19 05:22:34;;;;;;;32.75;7.05;;;16.80;99.90;;;;;;5054045;28;20188;-52
2022/08/19 05:25:03;;;;;;;33.03;7.72;;;16.80;99.90;;;;;;5053490;28;20181;-52
2022/08/19 05:27:29;;;;;;;30.50;8.52;;;16.80;99.90;;;;;;5053633;28;20181;-52
2022/08/19 05:29:54;;;;;;;35.30;8.95;;;16.80;99.90;;;;;;5053743;28;20632;-52
2022/08/19 05:32:21;;;;;;;34.65;10.93;;;16.80;99.90;;;;;;5053433;28;20201;-52
2022/08/19 05:34:47;;;;;;;32.17;10.65;;;16.70;99.90;;;;;;5053532;28;20235;-52
2022/08/19 05:37:13;;;;;;;32.58;12.23;;;16.70;99.90;;;;;;5053492;28;20622;-52
2022/08/19 05:39:40;;;;;;;38.45;12.13;;;16.60;99.90;;;;;;5053420;28;20704;-52
2022/08/19 05:42:08;;;;;;;35.70;12.70;;;16.60;99.90;;;;;;5053224;28;20177;-52
2022/08/19 05:44:43;;;;;;;26.85;11.05;;;16.60;99.90;;;;;;5053333;28;20208;-52
2022/08/19 05:47:10;;;;;;;29.52;9.73;;;;;;;;;;5052199;28;20180;-52
2022/08/19 05:49:37;;;;;;;29.85;8.73;;;;;;;;;;5053244;28;20192;-52
2022/08/19 05:52:07;;;;;;;28.05;8.85;;;;;;;;;;5053072;28;20205;-52
2022/08/19 05:54:33;;;;;;;27.77;7.85;;;;;;;;;;5053104;28;20201;-52
2022/08/19 05:57:01;;;;;;;25.88;8.32;;;;;;;;;;5052990;28;20165;-51
2022/08/19 05:59:27;;;;;;;19.23;5.57;;;;;;;;;;5052977;28;20173;-51
2022/08/19 06:01:56;;;;;;;20.38;5.95;;;;;;;;;;5051706;28;20181;-51
2022/08/19 06:04:23;;;;;;;18.50;6.13;;;;;;;;;;5053007;28;20250;-51
2022/08/19 06:06:51;;;;;;;21.83;5.47;;;;;;;;;;5052789;28;20173;-52
2022/08/19 06:09:18;;;;;;;20.48;6.03;;;;;;;;;;5052953;28;20195;-51
2022/08/19 06:11:46;;;;;;;21.35;5.45;;;;;;;;;;5052713;28;20612;-51
2022/08/19 06:14:17;;;;;;;23.63;6.22;;;;;;;;;;5052706;28;20212;-51
2022/08/19 06:16:44;;;;;;;23.17;5.53;;;;;;;;;;5052828;28;20185;-52
2022/08/19 06:19:15;;;;;;;23.27;5.47;;;;;;;;;;5052675;28;20628;-51
2022/08/19 06:21:43;;;;;;;15.90;4.53;;;;;;;;;;5051319;28;20169;-51
2022/08/19 06:24:14;;;;;;;17.83;4.80;;;;;;;;;;5052512;28;20184;-52
2022/08/19 06:26:41;;;;;;;18.45;3.75;;;;;;;;;;5052551;28;20168;-52
2022/08/19 06:29:08;;;;;;;18.90;4.28;;;;;;;;;;5052562;28;20165;-52
2022/08/19 06:31:36;;;;;;;14.00;3.92;;;;;;;;;;5052377;28;20216;-52
2022/08/19 06:34:03;;;;;;;17.88;3.78;;;;;;;;;;5052214;28;20788;-52
2022/08/19 06:36:37;;;;;;;20.63;3.58;;;;;;;;;;5052212;28;20169;-52
2022/08/19 06:39:07;;;;;;;16.63;3.40;;;;;;;;;;5052231;28;20176;-51
2022/08/19 06:41:37;;;;;;;24.67;3.85;;;;;;;;;;5052246;28;20632;-52
2022/08/19 06:44:04;;;;;;;14.52;3.55;;;;;;;;;;5051960;28;20308;-51
2022/08/19 06:46:30;;;;;;;21.38;3.50;;;;;;;;;;5051914;28;20169;-52
2022/08/19 06:48:56;;;;;;;16.55;3.50;;;;;;;;;;5052043;28;20170;-52
2022/08/19 06:51:23;;;;;;;15.25;2.92;;;;;;;;;;5052043;28;20180;-52
2022/08/19 06:53:50;;;;;;;18.48;3.22;;;;;;;;;;5051975;28;20291;-52
2022/08/19 06:56:20;;;;;;;17.05;3.10;;;;;;;;;;5051906;28;20181;-52
2022/08/19 06:58:48;;;;;;;12.65;2.72;;;;;;;;;;5051532;28;20177;-51
2022/08/19 07:01:14;;;;;;;15.65;3.10;;;;;;;;;;5051988;28;20226;-51
2022/08/19 07:03:39;;;;;;;15.90;2.92;;;17.10;99.90;;;;;;5051760;28;20172;-51
2022/08/19 07:06:14;;;;;;;22.80;3.42;;;17.20;99.90;;;;;;5051673;28;20173;-52
2022/08/19 07:08:40;;;;;;;14.57;2.63;;;17.30;99.90;;;;;;5051981;28;20173;-52
2022/08/19 07:11:12;;;;;;;12.52;2.45;;;17.20;99.90;;;;;;5051685;28;20165;-52
2022/08/19 07:13:39;;;;;;;16.67;2.83;;;17.10;99.90;;;;;;5051543;28;20762;-52
2022/08/19 07:16:14;;;;;;;17.25;2.75;;;17.00;99.90;;;;;;5051583;28;20255;-52
2022/08/19 07:18:40;;;;;;;17.45;2.20;;;16.90;99.90;;;;;;5051234;28;20181;-52
2022/08/19 07:21:07;;;;;;;16.00;2.95;;;16.90;99.90;;;;;;5051559;28;20257;-52
2022/08/19 07:23:33;;;;;;;12.82;2.38;;;17.00;99.90;;;;;;5051505;28;20171;-52
2022/08/19 07:26:06;;;;;;;13.15;2.60;;;17.00;99.90;;;;;;5051369;28;20646;-52
2022/08/19 07:28:32;;;;;;;14.38;2.63;;;17.00;99.90;;;;;;5051624;28;20203;-52
2022/08/19 07:30:58;;;;;;;12.85;2.30;;;17.10;99.90;;;;;;5051348;28;20597;-53
2022/08/19 07:33:23;;;;;;;19.42;2.70;;;17.10;99.90;;;;;;5051257;28;20208;-52
2022/08/19 07:35:49;;;;;;;26.92;3.40;;;17.10;99.90;;;;;;5051207;28;20184;-52
2022/08/19 07:38:16;;;;;;;18.98;2.97;;;17.10;99.90;;;;;;5050938;28;20660;-51
2022/08/19 07:40:42;;;;;;;16.40;2.75;;;17.10;99.90;;;;;;5051204;28;20552;-51
2022/08/19 07:43:08;;;;;;;22.60;3.17;;;17.10;99.90;;;;;;5050964;28;20729;-51
2022/08/19 07:45:34;;;;;;;17.13;3.05;;;17.20;99.90;;;;;;5051007;28;20268;-52
2022/08/19 07:48:00;;;;;;;20.42;2.47;;;17.20;99.90;;;;;;5051148;28;20180;-51
2022/08/19 07:50:26;;;;;;;18.73;3.40;;;17.20;99.90;;;;;;5050869;28;20540;-51
2022/08/19 07:52:52;;;;;;;16.90;3.22;;;17.20;99.90;;;;;;5050807;28;20216;-51
2022/08/19 07:55:25;;;;;;;14.38;2.78;;;17.30;99.90;;;;;;5050800;28;20180;-52
2022/08/19 07:57:52;;;;;;;18.40;2.97;;;17.40;99.90;;;;;;5050905;28;20189;-51
2022/08/19 08:00:18;;;;;;;22.67;3.10;;;17.50;99.90;;;;;;5051048;28;20173;-51
2022/08/19 08:02:44;;;;;;;17.58;2.85;;;17.60;99.90;;;;;;5050794;28;20712;-52
2022/08/19 08:10:39;;;;;;;17.60;2.67;;;17.90;99.90;;;;;;5050124;28;20167;-52
2022/08/19 08:13:05;;;;;;;17.20;2.92;;;18.00;99.90;;;;;;5050806;28;20213;-52
2022/08/19 08:15:31;;;;;;;16.92;2.95;;;18.00;99.90;;;;;;5050780;28;20648;-52
2022/08/19 08:17:57;;;;;;;22.48;3.40;;;18.00;99.90;;;;;;5050532;28;20619;-52
2022/08/19 08:20:24;;;;;;;13.90;3.30;;;18.20;99.90;;;;;;5050478;28;20579;-52
2022/08/19 08:25:36;;;;;;;15.15;2.97;;;18.70;99.90;;;;;;5051012;28;20180;-52
2022/08/19 08:28:03;;;;;;;13.48;2.35;;;19.70;99.90;;;;;;5050689;28;20260;-52
2022/08/19 08:30:32;;;;;;;13.63;2.55;;;21.20;99.90;;;;;;5050480;28;20173;-52
2022/08/19 08:32:58;;;;;;;14.32;2.40;;;22.50;99.90;;;;;;5050582;28;20278;-52
2022/08/19 08:35:24;;;;;;;15.65;2.80;;;24.10;99.90;;;;;;5050480;28;20172;-52
2022/08/19 08:37:53;;;;;;;12.15;2.38;;;25.60;99.90;;;;;;5050578;28;20200;-53
2022/08/19 08:40:32;;;;;;;10.63;2.67;;;26.70;99.90;;;;;;5050308;28;20177;-52
2022/08/19 08:43:18;;;;;;;12.27;2.13;;;26.70;99.90;;;;;;5050107;28;20228;-52
2022/08/19 08:45:59;;;;;;;9.23;2.20;;;27.70;99.90;;;;;;5050666;28;20177;-53
2022/08/19 08:48:38;;;;;;;10.38;2.40;;;28.20;99.90;;;;;;5050657;28;20604;-54
2022/08/19 08:51:11;;;;;;;10.18;2.70;;;29.00;99.90;;;;;;5050444;28;20219;-52
2022/08/19 08:53:38;;;;;;;11.45;2.30;;;29.20;99.90;;;;;;5050205;28;20300;-53
2022/08/19 08:56:12;;;;;;;13.82;2.88;;;29.60;99.90;;;;;;5050403;28;20158;-53
2022/08/19 08:58:48;;;;;;;12.55;2.83;;;30.10;99.90;;;;;;5050311;28;20185;-53
2022/08/19 09:01:15;;;;;;;13.27;2.95;;;29.80;99.90;;;;;;5050331;28;20223;-53
2022/08/19 09:03:42;;;;;;;11.43;2.53;;;28.10;99.90;;;;;;5050278;28;20177;-53
2022/08/19 09:06:15;;;;;;;12.15;2.75;;;26.90;99.90;;;;;;5050088;28;20165;-53
2022/08/19 09:08:45;;;;;;;11.38;2.33;;;25.70;99.90;;;;;;5050067;28;20550;-53
2022/08/19 09:11:29;;;;;;;16.88;3.15;;;24.90;99.90;;;;;;5050377;28;20256;-52
2022/08/19 09:14:25;;;;;;;12.55;2.28;;;24.30;99.90;;;;;;5050104;28;20266;-52
2022/08/19 09:16:51;;;;;;;11.75;2.95;;;23.70;99.90;;;;;;5050324;28;20169;-52
2022/08/19 09:19:17;;;;;;;8.18;1.85;;;23.20;99.90;;;;;;5050109;28;20579;-52
2022/08/19 09:21:43;;;;;;;14.15;2.50;;;23.00;99.90;;;;;;5051795;28;20180;-53
2022/08/19 09:24:09;;;;;;;15.80;2.80;;;22.60;99.90;;;;;;5053607;28;20169;-52
2022/08/19 09:26:35;;;;;;;13.95;2.22;;;22.50;99.90;;;;;;5053561;28;20174;-52
2022/08/19 09:29:04;;;;;;;17.35;2.78;;;22.40;99.90;;;;;;5053539;28;20652;-51
2022/08/19 09:31:32;;;;;;;19.13;2.72;;;22.20;99.90;;;;;;5053647;28;20534;-52
2022/08/19 09:33:59;;;;;;;11.35;2.33;;;22.10;99.90;;;;;;5053588;28;20208;-52
2022/08/19 09:36:28;;;;;;;10.40;1.92;;;22.30;99.90;;;;;;5053470;28;20248;-51
2022/08/19 09:38:55;;;;;;;13.35;2.97;;;22.40;99.90;;;;;;5053332;28;20177;-52
2022/08/19 09:41:23;;;;;;;12.73;2.20;;;22.30;99.90;;;;;;5053265;28;20648;-51
2022/08/19 09:43:53;;;;;;;16.10;3.05;;;22.10;99.90;;;;;;5051790;28;20221;-52
2022/08/19 09:46:20;;;;;;;12.27;2.45;;;22.30;99.90;;;;;;5053061;28;20655;-51
2022/08/19 09:48:51;;;;;;;17.90;2.90;;;22.20;99.90;;;;;;5053212;28;20173;-51
2022/08/19 09:51:20;;;;;;;18.83;3.35;;;22.60;99.90;;;;;;5053234;28;20251;-52
2022/08/19 09:53:49;;;;;;;11.25;2.75;;;22.40;99.90;;;;;;5052953;28;20208;-51
2022/08/19 09:56:17;;;;;;;14.82;2.80;;;22.50;99.90;;;;;;5053098;28;20208;-51
2022/08/19 09:58:42;;;;;;;17.42;3.55;;;21.90;99.90;;;;;;5053138;28;20169;-51
2022/08/19 10:01:09;;;;;;;14.75;2.50;;;21.50;99.90;;;;;;5052966;28;20173;-51
2022/08/19 10:03:36;;;;;;;12.43;2.92;;;21.60;99.90;;;;;;5052922;28;20244;-51
2022/08/19 10:06:03;;;;;;;16.83;2.90;;;21.50;99.90;;;;;;5052925;28;20173;-51
2022/08/19 10:08:33;;;;;;;13.73;2.78;;;21.60;99.90;;;;;;5052709;28;20169;-51
2022/08/19 10:10:59;;;;;;;15.98;2.92;;;21.00;99.90;;;;;;5052783;28;20234;-51
2022/08/19 10:13:27;;;;;;;15.60;2.92;;;20.80;99.90;;;;;;5052617;28;20255;-52
2022/08/19 10:15:56;;;;;;;17.98;3.50;;;20.50;99.90;;;;;;5052825;28;20173;-51
2022/08/19 10:18:22;;;;;;;15.13;2.97;;;20.60;99.90;;;;;;5052742;28;20311;-52
2022/08/19 10:20:50;;;;;;;16.65;3.92;;;20.50;99.90;;;;;;5052715;28;20248;-51
2022/08/19 10:23:17;;;;;;;18.73;3.40;;;20.10;99.90;;;;;;5052762;28;20184;-50
2022/08/19 10:25:43;;;;;;;24.48;3.60;;;20.00;99.90;;;;;;5052535;28;20185;-51
2022/08/19 10:28:11;;;;;;;20.27;3.35;;;19.90;99.90;;;;;;5052610;28;20177;-51
2022/08/19 10:30:39;;;;;;;15.63;2.90;;;20.20;99.90;;;;;;5052480;28;20181;-51
2022/08/19 10:33:05;;;;;;;17.15;3.47;;;20.40;99.90;;;;;;5051676;28;20272;-51
2022/08/19 10:35:30;;;;;;;13.10;2.85;;;20.70;99.90;;;;;;5052285;28;20170;-51
2022/08/19 10:38:01;;;;;;;17.88;2.75;;;21.00;99.90;;;;;;5052210;28;20175;-51
2022/08/19 10:40:27;;;;;;;20.10;3.08;;;21.30;99.90;;;;;;5052250;28;20640;-51
2022/08/19 10:42:55;;;;;;;16.95;2.70;;;21.90;99.90;;;;;;5052156;28;20236;-51
2022/08/19 10:45:25;;;;;;;12.90;3.40;;;22.40;99.90;;;;;;5052285;28;20177;-52
2022/08/19 10:47:52;;;;;;;15.18;3.58;;;22.80;99.90;;;;;;5052576;28;20178;-52
2022/08/19 10:53:11;;;;;;;15.85;2.78;;;22.80;99.90;;;;;;5052013;28;20250;-51
2022/08/19 10:58:25;;;;;;;14.32;3.00;;;23.80;99.90;;;;;;5052082;28;20180;-52
2022/08/19 11:00:57;;;;;;;13.82;2.95;;;24.30;99.90;;;;;;5052190;28;20184;-51
2022/08/19 11:03:25;;;;;;;13.48;3.05;;;25.00;99.90;;;;;;5051838;28;20175;-52
2022/08/19 11:06:08;;;;;;;10.90;2.45;;;25.70;99.90;;;;;;5051806;28;20173;-52
2022/08/19 11:08:37;;;;;;;16.80;3.20;;;25.90;99.90;;;;;;5051806;28;20687;-52
2022/08/19 11:11:05;;;;;;;11.32;2.65;;;26.20;99.90;;;;;;5051551;28;20188;-51
2022/08/19 11:13:35;;;;;;;15.40;3.00;;;26.70;99.90;;;;;;5051550;28;20266;-51
2022/08/19 11:16:06;;;;;;;18.45;3.72;;;26.40;99.90;;;;;;5051553;28;20173;-52
2022/08/19 11:18:33;;;;;;;13.27;3.30;;;27.30;99.90;;;;;;5051662;28;20192;-52
2022/08/19 11:21:11;;;;;;;10.88;2.72;;;27.80;99.90;;;;;;5051585;28;20176;-52
2022/08/19 11:23:37;;;;;;;15.35;3.10;;;27.60;99.90;;;;;;5051435;28;20202;-52
2022/08/19 11:26:02;;;;;;;16.00;3.53;;;29.10;99.90;;;;;;5051710;28;20291;-52
2022/08/19 11:28:29;;;;;;;17.63;3.58;;;30.40;99.90;;;;;;5051405;28;20169;-53
2022/08/19 11:30:54;;;;;;;9.63;2.78;;;31.30;99.90;;;;;;5051290;28;20642;-52
2022/08/19 11:33:20;;;;;;;10.50;2.95;;;29.90;99.90;;;;;;5051112;28;20221;-53
2022/08/19 11:35:46;;;;;;;12.95;2.75;;;28.80;99.90;;;;;;5051141;28;20173;-52
2022/08/19 11:38:13;;;;;;;12.93;2.90;;;27.50;99.90;;;;;;5051242;28;20538;-52
2022/08/19 11:40:39;;;;;;;15.00;3.25;;;25.80;99.90;;;;;;5051374;28;20291;-52
2022/08/19 11:43:05;;;;;;;12.75;3.00;;;25.60;99.90;;;;;;5050850;28;20209;-53
2022/08/19 11:45:31;;;;;;;15.82;3.28;;;26.30;99.90;;;;;;5050125;28;20191;-52
2022/08/19 11:47:57;;;;;;;14.40;3.40;;;27.40;99.90;;;;;;5051040;28;20169;-52
2022/08/19 11:50:23;;;;;;;12.15;3.00;;;27.50;99.90;;;;;;5051400;28;20177;-51
2022/08/19 11:52:49;;;;;;;9.75;2.40;;;26.70;99.90;;;;;;5050904;28;20629;-52
2022/08/19 11:55:15;;;;;;;13.70;2.78;;;26.80;99.90;;;;;;5050938;28;20173;-52
2022/08/19 11:57:43;;;;;;;17.63;2.75;;;26.30;99.90;;;;;;5050928;28;20681;-51
2022/08/19 12:00:11;;;;;;;14.35;2.67;;;25.70;99.90;;;;;;5051002;28;20252;-52
2022/08/19 12:02:37;;;;;;;11.68;2.75;;;26.00;99.90;;;;;;5050927;28;20177;-52
2022/08/19 12:05:03;;;;;;;15.43;3.20;;;27.20;99.90;;;;;;5050766;28;20173;-51
2022/08/19 12:07:31;;;;;;;16.65;3.30;;;27.00;99.90;;;;;;5050629;28;20173;-52
2022/08/19 12:09:57;;;;;;;11.93;2.63;;;26.70;99.90;;;;;;5050943;28;20173;-51
2022/08/19 12:12:24;;;;;;;11.38;2.90;;;28.00;99.90;;;;;;5050593;28;20204;-52
2022/08/19 12:14:56;;;;;;;16.58;3.05;;;29.50;99.90;;;;;;5050790;28;20185;-52
2022/08/19 12:17:22;;;;;;;14.52;3.03;;;30.10;99.90;;;;;;5050792;28;20256;-52
2022/08/19 12:19:48;;;;;;;17.95;2.80;;;28.90;99.90;;;;;;5050665;28;20308;-52
2022/08/19 12:22:14;;;;;;;17.85;3.22;;;27.30;99.90;;;;;;5050579;28;20185;-52
2022/08/19 12:24:40;;;;;;;10.18;2.60;;;26.00;99.90;;;;;;5050693;28;20165;-52
2022/08/19 12:27:05;;;;;;;12.82;2.72;;;25.30;99.90;;;;;;5050759;28;20268;-51
2022/08/19 12:29:32;;;;;;;14.50;2.47;;;25.50;99.90;;;;;;5050579;28;20191;-51
2022/08/19 12:32:00;;;;;;;18.92;3.13;;;25.50;99.90;;;;;;5050402;28;20280;-51
2022/08/19 12:34:30;;;;;;;18.17;3.03;;;25.40;99.90;;;;;;5050419;28;20260;-52
2022/08/19 12:37:02;;;;;;;12.13;2.60;;;26.30;99.90;;;;;;5050619;28;20173;-51
2022/08/19 12:39:27;;;;;;;24.88;4.95;;;28.10;99.90;;;;;;5049313;28;20831;-51
2022/08/19 12:41:53;;;;;;;14.40;3.35;;;28.50;99.90;;;;;;5050713;28;20188;-53
2022/08/19 12:44:20;;;;;;;13.55;2.72;;;28.70;99.90;;;;;;5050293;28;20692;-52
2022/08/19 12:46:46;;;;;;;6.93;2.20;;;28.10;99.90;;;;;;5050228;28;20180;-52
2022/08/19 12:49:12;;;;;;;10.82;3.22;;;28.50;99.90;;;;;;5050349;28;20192;-52
2022/08/19 12:51:38;;;;;;;15.00;2.22;;;29.50;99.90;;;;;;5050583;28;20204;-53
2022/08/19 12:54:04;;;;;;;11.77;2.80;;;29.70;99.90;;;;;;5050162;28;20244;-53
2022/08/19 12:56:30;;;;;;;14.68;3.00;;;28.80;99.90;;;;;;5051787;28;20177;-53
2022/08/19 12:58:56;;;;;;;9.48;2.60;;;28.40;99.90;;;;;;5054203;28;20265;-52
2022/08/19 13:01:22;;;;;;;12.23;2.63;;;29.30;99.90;;;;;;5054126;28;20273;-52
2022/08/19 13:03:47;;;;;;;15.23;3.17;;;29.30;99.90;;;;;;5054181;28;20169;-52
2022/08/19 13:06:14;;;;;;;12.02;2.75;;;29.50;99.90;;;;;;5054139;28;20177;-52
2022/08/19 13:08:40;;;;;;;12.02;2.60;;;28.60;99.90;;;;;;5054309;28;20169;-52
2022/08/19 13:11:15;;;;;;;12.63;3.08;;;28.50;99.90;;;;;;5054188;28;20664;-52
2022/08/19 13:13:42;;;;;;;16.90;2.33;;;27.90;99.90;;;;;;5053807;28;20220;-52
2022/08/19 13:16:10;;;;;;;12.55;2.22;;;27.60;99.90;;;;;;5053908;28;20169;-52
2022/08/19 13:18:37;;;;;;;13.35;2.78;;;27.30;99.90;;;;;;5053949;28;20185;-52
2022/08/19 13:21:06;;;;;;;11.88;2.80;;;28.10;99.90;;;;;;5053759;28;20180;-51